Aranspass, Texas
Current Conditions -  °F | °C
As of 11:55 PM on Thursday 27 Nov 2014 (Local Time) from KTFP Reporting Station
Clear Clear  
Wind Chill: 58°   Ceiling: Unl
Heat Index: 58°   Visibility: 10mi
Dew Point: 55°   Wind: 5mph
Humidity: 91%   Direction: 80°E
Pressure: 30.36"   Gusts: NA
Location:  27.9399°N, 97.1805°W
Report Text: KTFP 280555Z AUTO 08004KT 10SM CLR 14/13 A3036 RMK AO2 T01430128
Loading
Personal Weather Stations






























Interactive Weather Map New forecast layout! Learn more

10-Day Weather Forecast

Advertisements
Track Severe Weather on mobile